createdAt,value
2019-02-19T00:03:59.232Z,70.47
2019-02-19T00:09:04.652Z,70.67
2019-02-19T00:14:07.993Z,77.22
2019-02-19T00:19:10.894Z,74.70
2019-02-19T00:24:14.407Z,69.79
2019-02-19T00:29:17.217Z,71.58
2019-02-19T00:34:20.766Z,72.52
2019-02-19T00:39:23.629Z,71.79
2019-02-19T00:44:28.678Z,71.52
2019-02-19T00:49:31.286Z,71.53
2019-02-19T00:54:34.495Z,73.38
2019-02-19T00:59:37.699Z,74.28
2019-02-19T01:04:41.939Z,74.38
2019-02-19T01:09:45.300Z,73.64
2019-02-19T01:14:48.149Z,73.50
2019-02-19T01:19:50.739Z,73.22
2019-02-19T01:24:53.959Z,73.91
2019-02-19T01:29:56.771Z,74.74
2019-02-19T01:35:00.309Z,74.85
2019-02-19T01:40:05.267Z,74.54
2019-02-19T01:45:08.984Z,73.31
2019-02-19T01:50:12.162Z,73.62
2019-02-19T01:55:15.776Z,75.49
2019-02-19T02:00:18.988Z,76.04
2019-02-19T02:05:22.480Z,75.72
2019-02-19T02:10:26.033Z,75.33
2019-02-19T02:15:31.072Z,75.58
2019-02-19T02:20:34.269Z,75.87
2019-02-19T02:25:37.484Z,75.87
2019-02-19T02:30:41.014Z,76.15
2019-02-19T02:35:44.328Z,75.57
2019-02-19T02:40:47.838Z,76.14
2019-02-19T02:45:53.705Z,77.14
2019-02-19T02:50:55.848Z,78.57
2019-02-19T02:55:59.019Z,79.60
2019-02-19T03:01:02.511Z,81.35
2019-02-19T03:06:14.040Z,81.69
2019-02-19T03:11:17.241Z,83.40
2019-02-19T03:16:20.449Z,83.60
2019-02-19T03:21:23.973Z,84.24
2019-02-19T03:26:27.176Z,84.76
2019-02-19T03:31:29.993Z,85.06
2019-02-19T03:36:33.564Z,85.82
2019-02-19T03:41:37.027Z,86.58
2019-02-19T03:46:40.535Z,86.72
2019-02-19T03:51:43.681Z,86.97
2019-02-19T03:56:46.887Z,88.21
2019-02-19T04:01:50.086Z,88.33
2019-02-19T04:06:53.346Z,88.00
2019-02-19T04:11:56.920Z,88.09
2019-02-19T04:17:00.080Z,87.90
2019-02-19T04:22:03.602Z,89.62
2019-02-19T04:27:06.772Z,90.21
2019-02-19T04:32:11.492Z,91.84
2019-02-19T04:37:15.061Z,92.04
2019-02-19T04:42:18.225Z,92.16
2019-02-19T04:47:20.717Z,92.27
2019-02-19T04:52:23.987Z,92.97
2019-02-19T04:57:27.177Z,94.12
2019-02-19T05:02:30.438Z,93.60
2019-02-19T05:07:34.126Z,93.64
2019-02-19T05:17:46.207Z,94.64
2019-02-19T05:22:49.404Z,94.76
2019-02-19T05:27:52.278Z,95.27
2019-02-19T05:32:55.576Z,94.38
2019-02-19T05:37:58.833Z,95.12
2019-02-19T05:43:04.556Z,97.00
2019-02-19T05:48:08.095Z,97.26
2019-02-19T05:53:10.975Z,96.32
2019-02-19T05:58:13.819Z,96.67
2019-02-19T06:03:17.374Z,96.37
2019-02-19T06:08:20.342Z,96.62
2019-02-19T06:13:23.659Z,95.66
2019-02-19T06:18:26.867Z,96.41
2019-02-19T06:23:30.099Z,96.31
2019-02-19T06:28:33.077Z,95.97
2019-02-19T06:33:36.001Z,95.88
2019-02-19T06:38:39.313Z,94.74
2019-02-19T06:43:42.148Z,94.28
2019-02-19T06:48:45.407Z,93.60
2019-02-19T06:53:48.902Z,92.99
2019-02-19T06:58:51.384Z,93.10
2019-02-19T07:04:01.282Z,91.75
2019-02-19T07:09:05.414Z,92.21
2019-02-19T07:14:08.495Z,92.52
2019-02-19T07:19:11.733Z,92.14
2019-02-19T07:24:14.582Z,91.75
2019-02-19T07:29:18.033Z,91.77
2019-02-19T07:34:20.950Z,92.00
2019-02-19T07:39:24.376Z,91.94
2019-02-19T07:44:27.225Z,91.52
2019-02-19T07:49:30.479Z,90.56
2019-02-19T07:54:33.895Z,90.59
2019-02-19T07:59:37.015Z,90.83
2019-02-19T08:04:40.564Z,90.57
2019-02-19T08:09:44.033Z,89.96
2019-02-19T08:14:47.561Z,89.69
2019-02-19T08:19:50.461Z,89.90
2019-02-19T08:24:54.246Z,89.05
2019-02-19T08:29:57.796Z,89.65
2019-02-19T08:35:01.006Z,89.38
2019-02-19T08:40:04.338Z,89.30
2019-02-19T08:45:07.901Z,88.71
2019-02-19T08:50:11.148Z,88.28
2019-02-19T08:55:13.956Z,89.05
2019-02-19T09:00:19.972Z,89.30
2019-02-19T09:05:23.223Z,89.01
2019-02-19T09:10:26.448Z,88.77
2019-02-19T09:15:29.694Z,88.17
2019-02-19T09:20:32.569Z,87.84
2019-02-19T09:25:35.721Z,88.41
2019-02-19T09:30:38.996Z,88.04
2019-02-19T09:35:44.455Z,88.21
2019-02-19T09:40:47.943Z,88.17
2019-02-19T09:45:51.253Z,88.05
2019-02-19T09:50:54.857Z,86.88
2019-02-19T09:55:58.519Z,88.49
2019-02-19T10:01:01.728Z,87.69
2019-02-19T10:06:04.591Z,87.05
2019-02-19T10:11:07.854Z,87.24
2019-02-19T10:16:11.305Z,88.09
2019-02-19T10:21:14.869Z,88.38
2019-02-19T10:26:18.089Z,88.81
2019-02-19T10:31:21.337Z,88.91
2019-02-19T10:36:24.252Z,88.56
2019-02-19T10:41:27.244Z,88.18
2019-02-19T10:46:30.112Z,90.26
2019-02-19T10:51:33.196Z,90.87
2019-02-19T10:56:36.268Z,90.10
2019-02-19T11:01:39.874Z,90.89
2019-02-19T11:06:43.301Z,90.70
2019-02-19T11:11:46.629Z,90.84
2019-02-19T11:16:49.556Z,91.29
2019-02-19T11:21:52.781Z,92.71
2019-02-19T11:26:56.510Z,93.58
2019-02-19T11:31:59.156Z,94.02
2019-02-19T11:37:02.399Z,95.13
2019-02-19T11:42:05.429Z,95.34
2019-02-19T11:47:08.975Z,95.44
2019-02-19T11:52:12.444Z,95.80
2019-02-19T11:57:16.010Z,96.16
2019-02-19T12:02:18.964Z,95.91
2019-02-19T12:07:21.864Z,96.16
2019-02-19T12:12:25.081Z,96.39
2019-02-19T12:17:28.729Z,96.31
2019-02-19T12:22:31.540Z,95.66
2019-02-19T12:27:34.365Z,95.20
2019-02-19T12:32:38.026Z,95.35
2019-02-19T12:37:41.554Z,95.30
2019-02-19T12:42:44.030Z,95.78
2019-02-19T12:47:47.205Z,96.04
2019-02-19T12:52:50.163Z,96.20
2019-02-19T12:57:53.000Z,94.44
2019-02-19T13:02:56.396Z,95.54
2019-02-19T13:07:59.263Z,95.39
2019-02-19T13:13:02.474Z,95.16
2019-02-19T13:18:05.773Z,93.44
2019-02-19T13:23:08.776Z,92.25
2019-02-19T13:28:12.291Z,92.29
2019-02-19T13:33:15.832Z,91.83
2019-02-19T13:38:18.851Z,90.93
2019-02-19T13:43:22.407Z,90.23
2019-02-19T13:48:25.770Z,91.29
2019-02-19T13:53:35.799Z,90.42
2019-02-19T13:58:39.037Z,90.49
2019-02-19T14:03:41.953Z,88.73
2019-02-19T14:08:44.844Z,88.79
2019-02-19T14:14:03.388Z,88.06
2019-02-19T14:19:28.249Z,87.78
2019-02-19T14:24:38.919Z,87.94
2019-02-19T14:29:56.684Z,86.86
2019-02-19T14:35:31.631Z,85.92
2019-02-19T14:41:00.128Z,85.59
2019-02-19T14:46:28.643Z,85.25
2019-02-19T14:51:51.180Z,84.82
2019-02-19T14:57:02.390Z,85.10
2019-02-19T15:02:27.827Z,85.18
2019-02-19T15:07:50.043Z,85.76
2019-02-19T15:13:03.932Z,84.98
2019-02-19T15:18:32.369Z,84.52
2019-02-19T15:23:48.559Z,84.79
2019-02-19T15:29:03.535Z,85.12
2019-02-19T15:34:41.164Z,87.30
2019-02-19T15:39:52.878Z,89.37
2019-02-19T15:45:15.447Z,88.94
2019-02-19T15:50:37.808Z,89.28
2019-02-19T15:56:17.205Z,88.88
2019-02-19T16:01:42.066Z,90.07
2019-02-19T16:06:50.820Z,90.61
2019-02-19T16:12:25.599Z,90.83
2019-02-19T16:17:48.954Z,91.48
2019-02-19T16:23:10.378Z,91.65
2019-02-19T16:28:43.204Z,91.04
2019-02-19T16:34:08.453Z,91.57
2019-02-19T16:39:34.347Z,92.19
2019-02-19T16:45:12.165Z,91.52
2019-02-19T16:50:43.431Z,91.00
2019-02-19T16:56:05.310Z,91.10
2019-02-19T17:01:27.800Z,91.47
2019-02-19T17:06:40.161Z,91.66
2019-02-19T17:11:55.358Z,90.86
2019-02-19T17:17:16.229Z,91.33
2019-02-19T17:22:35.890Z,92.79
2019-02-19T17:27:51.595Z,92.32
2019-02-19T17:33:19.987Z,91.48
2019-02-19T17:38:43.265Z,91.88
2019-02-19T17:43:58.044Z,92.07
2019-02-19T17:49:19.187Z,91.69
2019-02-19T17:54:57.013Z,91.15
2019-02-19T18:00:21.435Z,92.75
2019-02-19T18:05:44.193Z,93.45
2019-02-19T18:11:07.841Z,94.81
2019-02-19T18:16:31.520Z,95.44
2019-02-19T18:21:45.153Z,95.49
2019-02-19T18:26:49.639Z,95.61
2019-02-19T18:31:53.146Z,95.95
2019-02-19T18:36:57.104Z,95.85
2019-02-19T18:42:00.975Z,95.53
2019-02-19T18:47:04.492Z,95.56
2019-02-19T18:52:09.076Z,95.47
2019-02-19T18:57:13.142Z,95.28
2019-02-19T19:02:17.861Z,95.92
2019-02-19T19:07:24.359Z,96.08
2019-02-19T19:12:31.272Z,95.71
2019-02-19T19:17:36.606Z,95.16
2019-02-19T19:22:42.490Z,95.39
2019-02-19T19:27:48.741Z,95.60
2019-02-19T19:32:54.550Z,94.39
2019-02-19T19:37:58.474Z,95.08
2019-02-19T19:43:04.142Z,95.99
2019-02-19T19:48:09.147Z,95.19
2019-02-19T19:53:16.348Z,94.40
2019-02-19T19:58:22.071Z,94.33
2019-02-19T20:03:27.885Z,95.47
2019-02-19T20:08:33.969Z,95.60
2019-02-19T20:13:41.479Z,95.41
2019-02-19T20:18:47.048Z,94.52
2019-02-19T20:23:54.461Z,94.89
2019-02-19T20:28:58.890Z,94.17
2019-02-19T20:34:06.067Z,95.31
2019-02-19T20:39:13.122Z,95.12
2019-02-19T20:44:18.612Z,95.02
2019-02-19T20:49:25.874Z,94.99
2019-02-19T20:54:32.534Z,94.86
2019-02-19T20:59:39.164Z,95.23
2019-02-19T21:04:46.144Z,94.30
2019-02-19T21:09:52.646Z,93.99
2019-02-19T21:14:59.298Z,93.94
2019-02-19T21:20:04.413Z,94.14
2019-02-19T21:25:09.538Z,93.59
2019-02-19T21:30:14.412Z,93.20
2019-02-19T21:35:18.738Z,93.59
2019-02-19T21:40:23.496Z,92.84
2019-02-19T21:45:27.725Z,92.09
2019-02-19T21:50:31.707Z,91.39
2019-02-19T21:55:36.051Z,91.49
2019-02-19T22:00:39.673Z,90.82
2019-02-19T22:05:43.450Z,91.37
2019-02-19T22:10:46.955Z,91.12
2019-02-19T22:15:50.441Z,91.53
2019-02-19T22:21:08.083Z,90.13
2019-02-19T22:26:11.392Z,89.58
2019-02-19T22:31:14.634Z,89.26
2019-02-19T22:36:17.507Z,89.44
2019-02-19T22:41:21.062Z,89.79
2019-02-19T22:46:24.334Z,89.90
2019-02-19T22:51:27.574Z,90.10
2019-02-19T22:56:33.650Z,90.32
2019-02-19T23:01:51.509Z,90.05
2019-02-19T23:06:54.717Z,89.90
2019-02-19T23:11:57.939Z,89.28
2019-02-19T23:17:01.441Z,89.72
2019-02-19T23:22:04.424Z,90.27
2019-02-19T23:27:07.363Z,89.66
2019-02-19T23:32:10.252Z,89.82
2019-02-19T23:37:24.631Z,89.90
2019-02-19T23:42:27.866Z,89.45
2019-02-19T23:47:31.327Z,90.13
2019-02-19T23:52:34.313Z,90.18
2019-02-19T23:57:37.259Z,90.39
